WEATHER DATA

YESTERDAY
Time Temp. Dewp. Hum. Bar. 1h Prec. 24h Prec.
00:03 20.9 15 69 1018.8 0.0000 0.0000
00:12 20.5 14.8 70 1018.9 0.0000 0.0000
00:22 20.5 14.2 67 1018.8 0.0000 0.0000
00:33 20.4 14.8 70 1018.7 0.0000 0.0000
00:43 20.2 14.8 71 1018.8 0.0000 0.0000
00:53 19.8 14.6 72 1018.9 0.1010 0.1000
01:03 19.6 14.2 71 1018.9 0.2020 0.2000
01:13 19.3 14.1 72 1018.9 0.2020 0.2000
01:23 18.8 13.9 73 1018.9 0.2020 0.2000
01:33 18.5 13.8 74 1019 0.2020 0.2000
01:43 18.3 13.6 74 1019 0.2020 0.2000
01:53 18.3 13.8 75 1019 0.1010 0.2000
02:03 18.2 13.7 75 1019 0.0000 0.2000
02:13 18.1 13.6 75 1019 0.0000 0.2000
02:24 18.1 13.6 75 1018.9 0.0000 0.2000
02:33 18 13.7 76 1018.9 0.0000 0.2000
02:43 18 13.7 76 1018.8 0.0000 0.2000
02:54 18 13.7 76 1018.8 0.0000 0.2000
03:04 17.9 13.6 76 1018.8 0.0000 0.2000
03:14 17.8 13.5 76 1018.8 0.0000 0.2000
03:24 17.7 13.4 76 1018.8 0.0000 0.2000
03:34 17.7 13.4 76 1018.7 0.0000 0.2000
03:44 17.6 13.3 76 1018.9 0.0000 0.2000
03:54 17.4 13.1 76 1019 0.0000 0.2000
04:04 17.3 13 76 1019.3 0.0000 0.2000
04:14 17.1 12.8 76 1019.3 0.0000 0.2000
04:24 17 12.7 76 1019.2 0.0000 0.2000
04:34 16.8 12.6 76 1019.2 0.0000 0.2000
04:45 16.6 12.4 76 1019.3 0.0000 0.2000
04:54 16.4 12.4 77 1019.3 0.0000 0.2000
05:04 16.3 12.3 77 1019.4 0.0000 0.2000
05:15 16.1 12.1 77 1019.4 0.0000 0.2000
05:25 16 11.8 76 1019.4 0.0000 0.2000
05:35 15.9 11.7 76 1019.4 0.0000 0.2000
05:44 15.8 11.6 76 1019.5 0.0000 0.2000
05:55 15.7 11.5 76 1019.5 0.0000 0.2000
06:05 15.6 11.6 77 1019.7 0.0000 0.2000
06:15 16 12 77 1019.7 0.0000 0.2000
06:26 16.5 12.5 77 1019.9 0.0000 0.2000
06:35 16.7 12.5 76 1019.9 0.0000 0.2000
06:45 17.5 13.2 76 1019.9 0.0000 0.2000
06:55 18.4 13.9 75 1020 0.0000 0.2000
07:06 19.2 14.5 74 1020.1 0.0000 0.2000
07:15 19.8 14.8 73 1020.1 0.0000 0.2000
07:25 20.5 15.3 72 1020.2 0.0000 0.2000
07:36 21.3 15.8 71 1020.2 0.0000 0.2000
07:46 22 16.1 69 1020.4 0.0000 0.2000
07:56 22.4 16.2 68 1020.4 0.0000 0.2000
08:05 22.7 16.3 67 1020.4 0.0000 0.2000
08:16 22.4 16.2 68 1020.4 0.0000 0.2000
08:26 22.7 16.3 67 1020.5 0.0000 0.2000
08:36 22.9 16.5 67 1020.5 0.0000 0.2000
08:47 22.9 15.2 62 1020.6 0.0000 0.2000
08:56 22.6 14.7 61 1020.7 0.0000 0.2000
09:06 22.6 14.4 60 1020.7 0.0000 0.2000
09:16 22.6 14.2 59 1020.7 0.0000 0.2000
09:27 22.8 14.6 60 1020.7 0.0000 0.2000
09:37 23 14.6 59 1020.7 0.0000 0.2000
09:46 22.9 14.7 60 1020.7 0.0000 0.2000
09:57 22.9 14.5 59 1020.8 0.0000 0.2000
10:07 23.1 14.4 58 1020.8 0.0000 0.2000
10:17 23.2 14.5 58 1020.7 0.0000 0.2000
10:26 23.4 14.9 59 1020.7 0.0000 0.2000
10:37 23.7 15 58 1020.7 0.0000 0.2000
10:47 23.7 15.2 59 1020.7 0.0000 0.2000
10:57 23.5 15 59 1020.7 0.0000 0.2000
11:07 23.9 15.4 59 1020.7 0.0000 0.2000
11:17 24.4 15.6 58 1020.7 0.0000 0.2000
11:27 24.5 15.4 57 1020.7 0.0000 0.2000
11:37 24.7 15.3 56 1020.8 0.0000 0.2000
11:48 24.7 15.1 55 1020.8 0.0000 0.2000
11:58 24.7 14.8 54 1020.7 0.0000 0.2000
12:07 25 15.3 55 1020.7 0.0000 0.2000
12:18 25.3 15.9 56 1020.7 0.0000 0.2000
12:28 25.4 15.7 55 1020.6 0.0000 0.2000
12:38 25.7 15.1 52 1020.6 0.0000 0.2000
12:47 25.6 15.3 53 1020.6 0.0000 0.2000
12:58 25.8 15.2 52 1020.6 0.0000 0.2000
13:08 26 15.4 52 1020.5 0.0000 0.2000
13:18 26 15.1 51 1020.4 0.0000 0.2000
13:28 26.2 15 50 1020.4 0.0000 0.2000
13:38 26.2 14.7 49 1020.3 0.0000 0.2000
13:48 26.1 14.9 50 1020.3 0.0000 0.2000
13:58 26.4 14.5 48 1020.3 0.0000 0.2000
14:09 26.4 15.1 50 1020.2 0.0000 0.2000
14:19 26.6 14.7 48 1020.2 0.0000 0.2000
14:28 26.6 14.4 47 1020.2 0.0000 0.2000
14:39 26.6 14 46 1020.2 0.0000 0.2000
14:49 26.7 14.1 46 1020.1 0.0000 0.2000
14:59 26.7 13.8 45 1020.1 0.0000 0.2000
15:09 26.9 14.6 47 1020.1 0.0000 0.2000
15:19 26.9 14.3 46 1020.1 0.0000 0.2000
15:29 26.9 14.6 47 1020.1 0.0000 0.2000
15:39 26.8 14.2 46 1020 0.0000 0.2000
15:49 27.1 14.5 46 1020.1 0.0000 0.2000
15:59 27.2 14.2 45 1020.1 0.0000 0.2000
16:09 27.1 13.8 44 1020 0.0000 0.2000
16:19 27.3 14 44 1019.9 0.0000 0.2000
16:30 27.1 13.5 43 1019.9 0.0000 0.2000
16:40 27.1 13.5 43 1019.8 0.0000 0.2000
16:49 27.2 12.8 41 1019.7 0.0000 0.2000
17:00 27.3 13.3 42 1019.7 0.0000 0.2000
17:10 27.3 13.3 42 1019.6 0.0000 0.2000
17:20 27.2 12.8 41 1019.6 0.0000 0.2000
17:30 27.1 12.4 40 1019.5 0.0000 0.2000
17:40 27.1 12.4 40 1019.5 0.0000 0.2000
17:50 27 11.1 37 1019.5 0.0000 0.2000
18:00 26.9 11 37 1019.5 0.0000 0.2000
18:10 26.9 11.8 39 1019.5 0.0000 0.2000
18:21 26.9 12.5 41 1019.4 0.0000 0.2000
18:30 26.7 12.7 42 1019.3 0.0000 0.2000
18:40 26.7 13.4 44 1019.3 0.0000 0.2000
18:51 26.9 13.3 43 1019.3 0.0000 0.2000
19:01 26.9 13.3 43 1019.3 0.0000 0.2000
19:10 27 13.7 44 1019.4 0.0000 0.2000
19:21 27.8 13.7 42 1019.4 0.0000 0.2000
19:31 28.5 14 41 1019.4 0.0000 0.2000
19:41 29 14 40 1019.5 0.0000 0.2000
19:51 29.4 14 39 1019.6 0.0000 0.2000
20:01 29.4 14.4 40 1019.6 0.0000 0.2000
20:11 29.7 14.7 40 1019.6 0.0000 0.2000
20:21 30.2 15.1 40 1019.7 0.0000 0.2000
20:31 29 14 40 1019.7 0.0000 0.2000
20:42 27.5 13.8 43 1019.7 0.0000 0.2000
20:51 26.5 13.6 45 1019.8 0.0000 0.2000
21:01 25.6 13.1 46 1019.8 0.0000 0.2000
21:12 24.9 13.5 49 1019.9 0.0000 0.2000
21:22 24.2 12.8 49 1019.9 0.0000 0.2000
21:31 23.7 13 51 1019.9 0.0000 0.2000
21:42 23.2 12.8 52 1019.9 0.0000 0.2000
21:52 22.7 12.6 53 1020 0.0000 0.2000
22:02 22.4 11.8 51 1020.1 0.0000 0.2000
22:12 22.4 11.5 50 1020.2 0.0000 0.2000
22:22 22.3 11.7 51 1020.3 0.0000 0.2000
22:32 22 11.4 51 1020.3 0.0000 0.2000
22:42 21.9 11.3 51 1020.5 0.0000 0.2000
22:52 21.7 11.4 52 1020.6 0.0000 0.2000
23:03 21.5 11.2 52 1020.7 0.0000 0.2000
23:12 21.4 11.4 53 1020.8 0.0000 0.2000
23:22 21.3 11.3 53 1020.9 0.0000 0.2000
23:33 21.1 11.4 54 1020.9 0.0000 0.2000
23:43 21 11.3 54 1020.9 0.0000 0.2000
23:52 20.9 11.5 55 1021.1 0.0000 0.2000

DAY STATISTIC

2022-07-05
TEMPERATURE
AVERAGE
22.9
HIGH
30.2
20:21
LOW
15.6
06:05
PRESSURE
AVERAGE
1019.9
HIGH
1021.1
23:52
LOW
1018.7
00:33
DEWPOINT
AVERAGE
13.8
HIGH
16.5
08:36
LOW
11.0
18:00
HUMIDITY
AVERAGE
58
HIGH
77
04:54
LOW
37
17:50
PRECIPITATION
RAIN HOUR
0.2
RAIN DAY
0.2
TEMPERATURE (°C)
LOW
15.6
HIGH
30.2
AVERAGE
22.9
PRESSURE (hpa)
LOW
1018.7
HIGH
1021.1
AVERAGE
1019.9
DEVICE